05:17
Airports
History
Links
Donate
Help keep this website running!
PayPal
Bitcoin
This page is community maintained. The information is intended for PC simulator navigation or reference.
Always use approved charts for navigation.
4A2
AtmautluakEdited 19-Oct-2017
Atmautluak (4A2)
Atmautluak, Alaska, United States (36728)
4
Lat/Lng:60° 52' 4.4" N / 162° 16' 27.4" W
60.867889 / -162.274278
Elevation:19'ft / 6mMSL
Declination:E018°
ID / ICAO:4A2
FAA:4A2
Runways:1
Longest:17-35
Dirt 914m / 2,999ft
(Edited 2017-10-19) [ Sign in to Edit ]
Nearby Weather04:53 GMT 2017-12-18
Nearby weather at PABE, Bethel located 16.0 nautical miles from 4A2
Altimeter: 30.04
Visibility: 10.0 statute miles
Wind: 6 knots (from 210°)
Temp: -5°c / 23°f
Humidity: 85.8%

METAR: PABE 180453Z 21006KT 10SM OVC026 M05/M07 A3004 RMK AO2 SLP175 T10501072

(Powered by phpweather)
Nearby VORs <50NM
Nearby NDBs
Runway 17 / 35
Dimensions:914 x 23m 2999' x 75'ft
Surface:Dirt
Runway 17 [A]Runway 35 [B]
Heading:148°MH  166°TH328°MH   346°TH
Lat:
Lng:
60° 52' 18.75"N
162° 16' 34.59"W
60° 51' 49.93"N
162° 16' 20.2"W
(Edited 2017-10-19) [ Sign in to Edit ]
User Notes and Comments
60° 52' 4.4" N / 162° 16' 27.4" W
Distance To
Airport ID:
Nearby Airports
4 Nunapitchuk 6.2 NM
16A WNW 295°
4 Kasigluk 8.4 NM
Z09 W 271°
4 Napakiak 15.8 NM
PANA SE 140°
(C) Bethel 16.0 NM
PABE ( WX ) ESE 112°
4 Napaskiak 20.2 NM
PAPK SE 124°
4 Kwethluk 28.5 NM
PFKW E 100°
4 Akiak 35.2 NM
PFAK E 86°
VFR Chart
Flight Planning at SkyVector.com